sensor_id;sensor_type;location;lat;lon;timestamp;P1;durP1;ratioP1;P2;durP2;ratioP2
69730;SDS011;56996;48.138;11.538;2023-05-29T00:01:31;17.10;;;7.60;;
69730;SDS011;56996;48.138;11.538;2023-05-29T00:03:58;14.30;;;6.60;;
69730;SDS011;56996;48.138;11.538;2023-05-29T00:06:25;18.10;;;8.20;;
69730;SDS011;56996;48.138;11.538;2023-05-29T00:08:51;16.40;;;8.10;;
69730;SDS011;56996;48.138;11.538;2023-05-29T00:11:18;16.10;;;8.00;;
69730;SDS011;56996;48.138;11.538;2023-05-29T00:13:45;18.30;;;7.90;;
69730;SDS011;56996;48.138;11.538;2023-05-29T00:16:11;15.00;;;8.00;;
69730;SDS011;56996;48.138;11.538;2023-05-29T00:18:39;15.30;;;7.50;;
69730;SDS011;56996;48.138;11.538;2023-05-29T00:21:13;17.00;;;7.30;;
69730;SDS011;56996;48.138;11.538;2023-05-29T00:23:40;15.40;;;8.00;;
69730;SDS011;56996;48.138;11.538;2023-05-29T00:26:07;14.70;;;7.40;;
69730;SDS011;56996;48.138;11.538;2023-05-29T00:28:35;16.80;;;7.30;;
69730;SDS011;56996;48.138;11.538;2023-05-29T00:31:02;14.00;;;6.80;;
69730;SDS011;56996;48.138;11.538;2023-05-29T00:33:29;14.70;;;7.40;;
69730;SDS011;56996;48.138;11.538;2023-05-29T00:35:57;14.00;;;7.00;;
69730;SDS011;56996;48.138;11.538;2023-05-29T00:38:23;15.90;;;7.40;;
69730;SDS011;56996;48.138;11.538;2023-05-29T00:40:50;15.30;;;7.60;;
69730;SDS011;56996;48.138;11.538;2023-05-29T00:43:17;17.80;;;7.50;;
69730;SDS011;56996;48.138;11.538;2023-05-29T00:45:43;14.50;;;6.80;;
69730;SDS011;56996;48.138;11.538;2023-05-29T00:48:11;15.20;;;7.20;;
69730;SDS011;56996;48.138;11.538;2023-05-29T00:50:37;14.60;;;7.10;;
69730;SDS011;56996;48.138;11.538;2023-05-29T00:53:05;15.30;;;7.30;;
69730;SDS011;56996;48.138;11.538;2023-05-29T00:55:33;13.80;;;6.70;;
69730;SDS011;56996;48.138;11.538;2023-05-29T00:58:00;14.70;;;6.70;;
69730;SDS011;56996;48.138;11.538;2023-05-29T01:00:27;14.30;;;6.80;;
69730;SDS011;56996;48.138;11.538;2023-05-29T01:02:55;14.80;;;6.90;;
69730;SDS011;56996;48.138;11.538;2023-05-29T01:05:23;14.10;;;7.10;;
69730;SDS011;56996;48.138;11.538;2023-05-29T01:07:49;15.20;;;7.10;;
69730;SDS011;56996;48.138;11.538;2023-05-29T01:10:16;14.30;;;6.80;;
69730;SDS011;56996;48.138;11.538;2023-05-29T01:12:49;15.30;;;6.50;;
69730;SDS011;56996;48.138;11.538;2023-05-29T01:18:51;14.90;;;6.70;;
69730;SDS011;56996;48.138;11.538;2023-05-29T01:21:49;16.80;;;6.70;;
69730;SDS011;56996;48.138;11.538;2023-05-29T01:24:49;14.90;;;6.90;;
69730;SDS011;56996;48.138;11.538;2023-05-29T01:27:21;15.80;;;7.00;;
69730;SDS011;56996;48.138;11.538;2023-05-29T01:29:51;13.40;;;6.40;;
69730;SDS011;56996;48.138;11.538;2023-05-29T01:32:20;14.30;;;6.90;;
69730;SDS011;56996;48.138;11.538;2023-05-29T01:34:46;15.30;;;6.40;;
69730;SDS011;56996;48.138;11.538;2023-05-29T01:37:13;14.50;;;6.80;;
69730;SDS011;56996;48.138;11.538;2023-05-29T01:39:40;14.30;;;6.70;;
69730;SDS011;56996;48.138;11.538;2023-05-29T01:42:07;14.50;;;6.60;;
69730;SDS011;56996;48.138;11.538;2023-05-29T01:44:35;14.30;;;6.70;;
69730;SDS011;56996;48.138;11.538;2023-05-29T01:47:03;15.30;;;7.00;;
69730;SDS011;56996;48.138;11.538;2023-05-29T01:49:34;16.30;;;7.00;;
69730;SDS011;56996;48.138;11.538;2023-05-29T01:52:03;15.80;;;6.40;;
69730;SDS011;56996;48.138;11.538;2023-05-29T01:54:30;14.40;;;6.50;;
69730;SDS011;56996;48.138;11.538;2023-05-29T01:56:57;13.60;;;6.60;;
69730;SDS011;56996;48.138;11.538;2023-05-29T01:59:24;13.40;;;6.40;;
69730;SDS011;56996;48.138;11.538;2023-05-29T02:01:51;13.30;;;6.50;;
69730;SDS011;56996;48.138;11.538;2023-05-29T02:04:18;13.10;;;6.00;;
69730;SDS011;56996;48.138;11.538;2023-05-29T02:06:45;12.60;;;6.60;;
69730;SDS011;56996;48.138;11.538;2023-05-29T02:09:11;13.10;;;6.40;;
69730;SDS011;56996;48.138;11.538;2023-05-29T02:11:38;13.80;;;6.30;;
69730;SDS011;56996;48.138;11.538;2023-05-29T02:14:10;13.10;;;6.40;;
69730;SDS011;56996;48.138;11.538;2023-05-29T02:16:38;15.10;;;7.20;;
69730;SDS011;56996;48.138;11.538;2023-05-29T02:19:07;16.10;;;6.50;;
69730;SDS011;56996;48.138;11.538;2023-05-29T02:21:38;13.80;;;6.30;;
69730;SDS011;56996;48.138;11.538;2023-05-29T02:24:06;14.50;;;6.30;;
69730;SDS011;56996;48.138;11.538;2023-05-29T02:26:33;13.90;;;6.70;;
69730;SDS011;56996;48.138;11.538;2023-05-29T02:29:03;15.40;;;6.70;;
69730;SDS011;56996;48.138;11.538;2023-05-29T02:31:33;15.10;;;6.50;;
69730;SDS011;56996;48.138;11.538;2023-05-29T02:34:00;15.00;;;6.00;;
69730;SDS011;56996;48.138;11.538;2023-05-29T02:36:27;13.80;;;6.60;;
69730;SDS011;56996;48.138;11.538;2023-05-29T02:38:57;13.40;;;5.80;;
69730;SDS011;56996;48.138;11.538;2023-05-29T02:41:24;14.20;;;6.50;;
69730;SDS011;56996;48.138;11.538;2023-05-29T02:43:51;14.90;;;6.60;;
69730;SDS011;56996;48.138;11.538;2023-05-29T02:46:20;14.30;;;6.40;;
69730;SDS011;56996;48.138;11.538;2023-05-29T02:48:48;13.80;;;6.30;;
69730;SDS011;56996;48.138;11.538;2023-05-29T02:51:15;12.60;;;6.00;;
69730;SDS011;56996;48.138;11.538;2023-05-29T02:53:42;14.10;;;6.10;;
69730;SDS011;56996;48.138;11.538;2023-05-29T02:56:08;13.00;;;5.00;;
69730;SDS011;56996;48.138;11.538;2023-05-29T02:58:35;12.10;;;5.80;;
69730;SDS011;56996;48.138;11.538;2023-05-29T03:01:02;13.10;;;5.80;;
69730;SDS011;56996;48.138;11.538;2023-05-29T03:03:30;13.50;;;6.00;;
69730;SDS011;56996;48.138;11.538;2023-05-29T03:05:57;13.50;;;6.10;;
69730;SDS011;56996;48.138;11.538;2023-05-29T03:08:24;13.90;;;6.30;;
69730;SDS011;56996;48.138;11.538;2023-05-29T03:10:52;14.60;;;6.10;;
69730;SDS011;56996;48.138;11.538;2023-05-29T03:13:20;14.30;;;5.80;;
69730;SDS011;56996;48.138;11.538;2023-05-29T03:15:54;12.80;;;5.80;;
69730;SDS011;56996;48.138;11.538;2023-05-29T03:18:24;13.60;;;6.10;;
69730;SDS011;56996;48.138;11.538;2023-05-29T03:20:50;14.20;;;5.90;;
69730;SDS011;56996;48.138;11.538;2023-05-29T03:23:17;13.80;;;6.10;;
69730;SDS011;56996;48.138;11.538;2023-05-29T03:25:45;16.10;;;6.40;;
69730;SDS011;56996;48.138;11.538;2023-05-29T03:28:12;14.20;;;6.30;;
69730;SDS011;56996;48.138;11.538;2023-05-29T03:30:40;14.70;;;5.90;;
69730;SDS011;56996;48.138;11.538;2023-05-29T03:33:07;12.90;;;5.60;;
69730;SDS011;56996;48.138;11.538;2023-05-29T03:35:54;16.90;;;6.30;;
69730;SDS011;56996;48.138;11.538;2023-05-29T03:38:23;13.40;;;5.70;;
69730;SDS011;56996;48.138;11.538;2023-05-29T03:40:51;12.70;;;6.00;;
69730;SDS011;56996;48.138;11.538;2023-05-29T03:43:18;13.50;;;5.80;;
69730;SDS011;56996;48.138;11.538;2023-05-29T03:45:45;13.40;;;5.80;;
69730;SDS011;56996;48.138;11.538;2023-05-29T03:48:12;12.10;;;5.30;;
69730;SDS011;56996;48.138;11.538;2023-05-29T03:50:39;13.80;;;6.00;;
69730;SDS011;56996;48.138;11.538;2023-05-29T03:53:06;12.90;;;5.70;;
69730;SDS011;56996;48.138;11.538;2023-05-29T03:55:33;12.50;;;5.80;;
69730;SDS011;56996;48.138;11.538;2023-05-29T03:57:59;13.70;;;5.70;;
69730;SDS011;56996;48.138;11.538;2023-05-29T04:00:26;12.30;;;5.70;;
69730;SDS011;56996;48.138;11.538;2023-05-29T04:02:55;11.60;;;5.20;;
69730;SDS011;56996;48.138;11.538;2023-05-29T04:05:23;12.60;;;5.20;;
69730;SDS011;56996;48.138;11.538;2023-05-29T04:07:50;12.00;;;5.30;;
69730;SDS011;56996;48.138;11.538;2023-05-29T04:10:26;13.50;;;6.10;;
69730;SDS011;56996;48.138;11.538;2023-05-29T04:12:53;14.00;;;6.20;;
69730;SDS011;56996;48.138;11.538;2023-05-29T04:15:21;12.80;;;5.40;;
69730;SDS011;56996;48.138;11.538;2023-05-29T04:17:48;13.40;;;5.10;;
69730;SDS011;56996;48.138;11.538;2023-05-29T04:20:15;12.80;;;5.40;;
69730;SDS011;56996;48.138;11.538;2023-05-29T04:22:42;15.20;;;6.70;;
69730;SDS011;56996;48.138;11.538;2023-05-29T04:25:08;16.70;;;6.00;;
69730;SDS011;56996;48.138;11.538;2023-05-29T04:27:35;13.50;;;5.30;;
69730;SDS011;56996;48.138;11.538;2023-05-29T04:30:06;11.80;;;4.90;;
69730;SDS011;56996;48.138;11.538;2023-05-29T04:32:37;12.70;;;5.70;;
69730;SDS011;56996;48.138;11.538;2023-05-29T04:35:05;12.20;;;5.10;;
69730;SDS011;56996;48.138;11.538;2023-05-29T04:37:33;14.40;;;5.40;;
69730;SDS011;56996;48.138;11.538;2023-05-29T04:40:08;13.80;;;5.60;;
69730;SDS011;56996;48.138;11.538;2023-05-29T04:42:36;13.10;;;5.50;;
69730;SDS011;56996;48.138;11.538;2023-05-29T04:45:08;12.90;;;5.30;;
69730;SDS011;56996;48.138;11.538;2023-05-29T04:47:37;13.70;;;6.10;;
69730;SDS011;56996;48.138;11.538;2023-05-29T04:50:14;12.20;;;5.40;;
69730;SDS011;56996;48.138;11.538;2023-05-29T04:52:43;12.70;;;5.20;;
69730;SDS011;56996;48.138;11.538;2023-05-29T04:55:10;12.30;;;5.20;;
69730;SDS011;56996;48.138;11.538;2023-05-29T04:57:38;11.50;;;4.80;;
69730;SDS011;56996;48.138;11.538;2023-05-29T05:00:07;12.40;;;5.10;;
69730;SDS011;56996;48.138;11.538;2023-05-29T05:02:42;12.40;;;5.10;;
69730;SDS011;56996;48.138;11.538;2023-05-29T05:05:12;12.50;;;5.00;;
69730;SDS011;56996;48.138;11.538;2023-05-29T05:07:39;12.00;;;5.20;;
69730;SDS011;56996;48.138;11.538;2023-05-29T05:10:07;11.40;;;5.10;;
69730;SDS011;56996;48.138;11.538;2023-05-29T05:12:34;12.20;;;4.90;;
69730;SDS011;56996;48.138;11.538;2023-05-29T05:15:01;11.90;;;4.80;;
69730;SDS011;56996;48.138;11.538;2023-05-29T05:17:28;15.60;;;5.20;;
69730;SDS011;56996;48.138;11.538;2023-05-29T05:19:55;13.30;;;5.00;;
69730;SDS011;56996;48.138;11.538;2023-05-29T05:22:22;10.40;;;5.20;;
69730;SDS011;56996;48.138;11.538;2023-05-29T05:24:49;10.80;;;5.00;;
69730;SDS011;56996;48.138;11.538;2023-05-29T05:27:15;11.80;;;4.90;;
69730;SDS011;56996;48.138;11.538;2023-05-29T05:29:42;12.20;;;4.90;;
69730;SDS011;56996;48.138;11.538;2023-05-29T05:32:09;12.50;;;4.90;;
69730;SDS011;56996;48.138;11.538;2023-05-29T05:34:36;11.40;;;4.90;;
69730;SDS011;56996;48.138;11.538;2023-05-29T05:37:03;9.90;;;4.80;;
69730;SDS011;56996;48.138;11.538;2023-05-29T05:39:30;11.40;;;4.90;;
69730;SDS011;56996;48.138;11.538;2023-05-29T05:41:57;10.00;;;4.90;;
69730;SDS011;56996;48.138;11.538;2023-05-29T05:44:44;11.80;;;5.40;;
69730;SDS011;56996;48.138;11.538;2023-05-29T05:47:12;10.80;;;4.70;;
69730;SDS011;56996;48.138;11.538;2023-05-29T05:49:40;14.60;;;5.30;;
69730;SDS011;56996;48.138;11.538;2023-05-29T05:52:07;11.30;;;5.30;;
69730;SDS011;56996;48.138;11.538;2023-05-29T05:54:34;11.60;;;5.40;;
69730;SDS011;56996;48.138;11.538;2023-05-29T05:57:01;10.20;;;5.00;;
69730;SDS011;56996;48.138;11.538;2023-05-29T05:59:30;9.80;;;4.30;;
69730;SDS011;56996;48.138;11.538;2023-05-29T06:01:57;12.10;;;5.10;;
69730;SDS011;56996;48.138;11.538;2023-05-29T06:04:24;11.60;;;5.40;;
69730;SDS011;56996;48.138;11.538;2023-05-29T06:06:51;12.10;;;5.40;;
69730;SDS011;56996;48.138;11.538;2023-05-29T06:09:18;12.80;;;5.70;;
69730;SDS011;56996;48.138;11.538;2023-05-29T06:11:48;11.70;;;5.60;;
69730;SDS011;56996;48.138;11.538;2023-05-29T06:14:15;12.00;;;5.30;;
69730;SDS011;56996;48.138;11.538;2023-05-29T06:16:43;10.10;;;5.00;;
69730;SDS011;56996;48.138;11.538;2023-05-29T06:19:10;9.10;;;4.40;;
69730;SDS011;56996;48.138;11.538;2023-05-29T06:21:54;9.10;;;4.40;;
69730;SDS011;56996;48.138;11.538;2023-05-29T06:24:21;9.90;;;4.60;;
69730;SDS011;56996;48.138;11.538;2023-05-29T06:26:48;9.00;;;4.80;;
69730;SDS011;56996;48.138;11.538;2023-05-29T06:29:17;9.50;;;4.50;;
69730;SDS011;56996;48.138;11.538;2023-05-29T06:31:43;12.80;;;7.80;;
69730;SDS011;56996;48.138;11.538;2023-05-29T06:34:10;9.80;;;5.40;;
69730;SDS011;56996;48.138;11.538;2023-05-29T06:36:37;9.90;;;5.30;;
69730;SDS011;56996;48.138;11.538;2023-05-29T06:39:04;9.10;;;4.60;;
69730;SDS011;56996;48.138;11.538;2023-05-29T06:41:31;9.70;;;5.00;;
69730;SDS011;56996;48.138;11.538;2023-05-29T06:43:58;9.80;;;5.50;;
69730;SDS011;56996;48.138;11.538;2023-05-29T06:46:25;10.50;;;5.60;;
69730;SDS011;56996;48.138;11.538;2023-05-29T06:48:51;9.60;;;5.00;;
69730;SDS011;56996;48.138;11.538;2023-05-29T06:51:19;8.90;;;4.80;;
69730;SDS011;56996;48.138;11.538;2023-05-29T06:53:54;8.50;;;4.90;;
69730;SDS011;56996;48.138;11.538;2023-05-29T06:56:22;8.40;;;4.70;;
69730;SDS011;56996;48.138;11.538;2023-05-29T06:58:49;8.80;;;4.80;;
69730;SDS011;56996;48.138;11.538;2023-05-29T07:01:16;8.80;;;5.40;;
69730;SDS011;56996;48.138;11.538;2023-05-29T07:04:09;8.30;;;5.00;;
69730;SDS011;56996;48.138;11.538;2023-05-29T07:06:36;8.60;;;5.10;;
69730;SDS011;56996;48.138;11.538;2023-05-29T07:09:04;9.20;;;5.10;;
69730;SDS011;56996;48.138;11.538;2023-05-29T07:11:31;10.00;;;5.50;;
69730;SDS011;56996;48.138;11.538;2023-05-29T07:13:57;8.80;;;5.70;;
69730;SDS011;56996;48.138;11.538;2023-05-29T07:16:25;8.70;;;6.00;;
69730;SDS011;56996;48.138;11.538;2023-05-29T07:18:56;8.50;;;5.20;;
69730;SDS011;56996;48.138;11.538;2023-05-29T07:21:25;8.70;;;5.40;;
69730;SDS011;56996;48.138;11.538;2023-05-29T07:23:53;9.00;;;5.20;;
69730;SDS011;56996;48.138;11.538;2023-05-29T07:26:19;9.40;;;5.80;;
69730;SDS011;56996;48.138;11.538;2023-05-29T07:28:49;8.10;;;5.20;;
69730;SDS011;56996;48.138;11.538;2023-05-29T07:31:16;10.10;;;7.10;;
69730;SDS011;56996;48.138;11.538;2023-05-29T07:33:43;8.30;;;5.80;;
69730;SDS011;56996;48.138;11.538;2023-05-29T07:36:11;7.90;;;6.30;;
69730;SDS011;56996;48.138;11.538;2023-05-29T07:38:39;8.10;;;5.50;;
69730;SDS011;56996;48.138;11.538;2023-05-29T07:41:05;8.80;;;6.70;;
69730;SDS011;56996;48.138;11.538;2023-05-29T07:43:35;7.70;;;6.00;;
69730;SDS011;56996;48.138;11.538;2023-05-29T07:46:05;8.70;;;6.20;;
69730;SDS011;56996;48.138;11.538;2023-05-29T07:48:33;9.40;;;6.30;;
69730;SDS011;56996;48.138;11.538;2023-05-29T07:51:01;8.30;;;6.30;;
69730;SDS011;56996;48.138;11.538;2023-05-29T07:53:31;8.60;;;6.90;;
69730;SDS011;56996;48.138;11.538;2023-05-29T07:55:58;8.80;;;7.00;;
69730;SDS011;56996;48.138;11.538;2023-05-29T07:58:25;10.70;;;7.40;;
69730;SDS011;56996;48.138;11.538;2023-05-29T08:00:51;8.70;;;7.70;;
69730;SDS011;56996;48.138;11.538;2023-05-29T08:03:18;9.90;;;7.80;;
69730;SDS011;56996;48.138;11.538;2023-05-29T08:06:04;11.20;;;8.10;;
69730;SDS011;56996;48.138;11.538;2023-05-29T08:08:32;9.10;;;8.10;;
69730;SDS011;56996;48.138;11.538;2023-05-29T08:10:59;11.60;;;8.20;;
69730;SDS011;56996;48.138;11.538;2023-05-29T08:13:27;8.60;;;7.50;;
69730;SDS011;56996;48.138;11.538;2023-05-29T08:15:55;10.00;;;8.70;;
69730;SDS011;56996;48.138;11.538;2023-05-29T08:18:26;10.80;;;8.70;;
69730;SDS011;56996;48.138;11.538;2023-05-29T08:20:53;9.10;;;8.10;;
69730;SDS011;56996;48.138;11.538;2023-05-29T08:23:20;8.30;;;6.20;;
69730;SDS011;56996;48.138;11.538;2023-05-29T08:25:47;9.90;;;7.60;;
69730;SDS011;56996;48.138;11.538;2023-05-29T08:28:15;10.50;;;9.10;;
69730;SDS011;56996;48.138;11.538;2023-05-29T08:30:42;9.40;;;8.30;;
69730;SDS011;56996;48.138;11.538;2023-05-29T08:33:08;9.30;;;7.80;;
69730;SDS011;56996;48.138;11.538;2023-05-29T08:35:35;10.80;;;8.30;;
69730;SDS011;56996;48.138;11.538;2023-05-29T08:38:02;9.00;;;7.80;;
69730;SDS011;56996;48.138;11.538;2023-05-29T08:40:29;10.20;;;8.70;;
69730;SDS011;56996;48.138;11.538;2023-05-29T08:42:58;11.20;;;9.30;;
69730;SDS011;56996;48.138;11.538;2023-05-29T08:45:29;9.70;;;8.70;;
69730;SDS011;56996;48.138;11.538;2023-05-29T08:47:57;8.50;;;7.30;;
69730;SDS011;56996;48.138;11.538;2023-05-29T08:50:27;10.30;;;8.20;;
69730;SDS011;56996;48.138;11.538;2023-05-29T08:52:53;8.50;;;7.40;;
69730;SDS011;56996;48.138;11.538;2023-05-29T08:55:20;9.80;;;8.00;;
69730;SDS011;56996;48.138;11.538;2023-05-29T08:57:48;9.00;;;8.10;;
69730;SDS011;56996;48.138;11.538;2023-05-29T09:00:15;8.90;;;8.00;;
69730;SDS011;56996;48.138;11.538;2023-05-29T09:02:42;9.10;;;8.10;;
69730;SDS011;56996;48.138;11.538;2023-05-29T09:05:13;8.40;;;7.30;;
69730;SDS011;56996;48.138;11.538;2023-05-29T09:07:40;8.40;;;7.30;;
69730;SDS011;56996;48.138;11.538;2023-05-29T09:10:10;9.80;;;8.80;;
69730;SDS011;56996;48.138;11.538;2023-05-29T09:12:37;9.00;;;8.10;;
69730;SDS011;56996;48.138;11.538;2023-05-29T09:15:16;9.90;;;8.90;;
69730;SDS011;56996;48.138;11.538;2023-05-29T09:17:52;8.60;;;7.70;;
69730;SDS011;56996;48.138;11.538;2023-05-29T09:20:21;9.60;;;8.20;;
69730;SDS011;56996;48.138;11.538;2023-05-29T09:22:55;10.00;;;8.70;;
69730;SDS011;56996;48.138;11.538;2023-05-29T09:25:26;8.70;;;7.10;;
69730;SDS011;56996;48.138;11.538;2023-05-29T09:28:02;8.90;;;6.90;;
69730;SDS011;56996;48.138;11.538;2023-05-29T09:30:38;8.20;;;6.80;;
69730;SDS011;56996;48.138;11.538;2023-05-29T09:33:14;9.50;;;7.10;;
69730;SDS011;56996;48.138;11.538;2023-05-29T09:35:44;9.30;;;6.00;;
69730;SDS011;56996;48.138;11.538;2023-05-29T09:38:15;8.40;;;5.60;;
69730;SDS011;56996;48.138;11.538;2023-05-29T09:41:05;8.90;;;5.50;;
69730;SDS011;56996;48.138;11.538;2023-05-29T09:43:32;8.90;;;5.10;;
69730;SDS011;56996;48.138;11.538;2023-05-29T09:46:01;8.10;;;4.50;;
69730;SDS011;56996;48.138;11.538;2023-05-29T09:48:29;7.70;;;4.10;;
69730;SDS011;56996;48.138;11.538;2023-05-29T09:50:57;8.50;;;4.20;;
69730;SDS011;56996;48.138;11.538;2023-05-29T09:53:26;8.40;;;4.60;;
69730;SDS011;56996;48.138;11.538;2023-05-29T09:55:56;9.10;;;4.20;;
69730;SDS011;56996;48.138;11.538;2023-05-29T09:58:26;7.40;;;4.00;;
69730;SDS011;56996;48.138;11.538;2023-05-29T10:00:53;9.10;;;4.00;;
69730;SDS011;56996;48.138;11.538;2023-05-29T10:03:20;7.90;;;3.60;;
69730;SDS011;56996;48.138;11.538;2023-05-29T10:05:52;8.90;;;3.80;;
69730;SDS011;56996;48.138;11.538;2023-05-29T10:08:25;7.60;;;3.30;;
69730;SDS011;56996;48.138;11.538;2023-05-29T10:11:02;8.40;;;3.90;;
69730;SDS011;56996;48.138;11.538;2023-05-29T10:13:35;9.00;;;4.40;;
69730;SDS011;56996;48.138;11.538;2023-05-29T10:16:10;8.60;;;3.90;;
69730;SDS011;56996;48.138;11.538;2023-05-29T10:18:44;7.50;;;3.40;;
69730;SDS011;56996;48.138;11.538;2023-05-29T10:21:12;9.10;;;3.90;;
69730;SDS011;56996;48.138;11.538;2023-05-29T10:23:41;10.40;;;4.20;;
69730;SDS011;56996;48.138;11.538;2023-05-29T10:26:37;8.20;;;3.70;;
69730;SDS011;56996;48.138;11.538;2023-05-29T10:32:18;7.90;;;3.50;;
69730;SDS011;56996;48.138;11.538;2023-05-29T10:37:44;8.00;;;3.70;;
69730;SDS011;56996;48.138;11.538;2023-05-29T10:40:23;7.80;;;3.40;;
69730;SDS011;56996;48.138;11.538;2023-05-29T10:42:52;8.20;;;3.50;;
69730;SDS011;56996;48.138;11.538;2023-05-29T10:53:23;8.90;;;3.30;;
69730;SDS011;56996;48.138;11.538;2023-05-29T10:55:51;7.80;;;3.50;;
69730;SDS011;56996;48.138;11.538;2023-05-29T10:58:21;9.90;;;3.50;;
69730;SDS011;56996;48.138;11.538;2023-05-29T11:00:53;9.70;;;3.60;;
69730;SDS011;56996;48.138;11.538;2023-05-29T11:03:24;7.60;;;3.20;;
69730;SDS011;56996;48.138;11.538;2023-05-29T11:06:00;7.50;;;3.30;;
69730;SDS011;56996;48.138;11.538;2023-05-29T11:08:52;9.00;;;3.50;;
69730;SDS011;56996;48.138;11.538;2023-05-29T11:11:30;8.50;;;3.40;;
69730;SDS011;56996;48.138;11.538;2023-05-29T11:14:05;8.00;;;3.20;;
69730;SDS011;56996;48.138;11.538;2023-05-29T11:19:04;9.00;;;3.40;;
69730;SDS011;56996;48.138;11.538;2023-05-29T11:22:00;8.20;;;3.50;;
69730;SDS011;56996;48.138;11.538;2023-05-29T11:24:34;8.10;;;3.70;;
69730;SDS011;56996;48.138;11.538;2023-05-29T11:27:05;7.30;;;3.20;;
69730;SDS011;56996;48.138;11.538;2023-05-29T11:29:35;8.00;;;3.20;;
69730;SDS011;56996;48.138;11.538;2023-05-29T11:32:03;9.40;;;3.70;;
69730;SDS011;56996;48.138;11.538;2023-05-29T11:34:32;7.50;;;3.50;;
69730;SDS011;56996;48.138;11.538;2023-05-29T11:37:00;8.20;;;3.70;;
69730;SDS011;56996;48.138;11.538;2023-05-29T11:39:28;7.30;;;3.20;;
69730;SDS011;56996;48.138;11.538;2023-05-29T11:41:55;8.20;;;3.50;;
69730;SDS011;56996;48.138;11.538;2023-05-29T11:44:25;7.80;;;3.20;;
69730;SDS011;56996;48.138;11.538;2023-05-29T11:47:05;8.70;;;3.50;;
69730;SDS011;56996;48.138;11.538;2023-05-29T11:49:36;8.30;;;3.70;;
69730;SDS011;56996;48.138;11.538;2023-05-29T11:52:12;8.10;;;3.40;;
69730;SDS011;56996;48.138;11.538;2023-05-29T11:54:44;7.20;;;3.00;;
69730;SDS011;56996;48.138;11.538;2023-05-29T11:57:20;9.40;;;3.30;;
69730;SDS011;56996;48.138;11.538;2023-05-29T11:59:49;7.90;;;3.20;;
69730;SDS011;56996;48.138;11.538;2023-05-29T12:02:18;7.60;;;3.20;;
69730;SDS011;56996;48.138;11.538;2023-05-29T12:05:00;7.00;;;2.50;;
69730;SDS011;56996;48.138;11.538;2023-05-29T12:07:31;7.60;;;2.80;;
69730;SDS011;56996;48.138;11.538;2023-05-29T12:10:14;7.30;;;3.00;;
69730;SDS011;56996;48.138;11.538;2023-05-29T12:12:46;8.00;;;3.10;;
69730;SDS011;56996;48.138;11.538;2023-05-29T12:15:14;8.20;;;2.80;;
69730;SDS011;56996;48.138;11.538;2023-05-29T12:17:41;7.60;;;2.80;;
69730;SDS011;56996;48.138;11.538;2023-05-29T12:20:10;6.40;;;3.00;;
69730;SDS011;56996;48.138;11.538;2023-05-29T12:22:39;8.20;;;3.00;;
69730;SDS011;56996;48.138;11.538;2023-05-29T12:25:12;7.20;;;3.20;;
69730;SDS011;56996;48.138;11.538;2023-05-29T12:27:43;7.20;;;2.80;;
69730;SDS011;56996;48.138;11.538;2023-05-29T12:30:13;6.90;;;3.00;;
69730;SDS011;56996;48.138;11.538;2023-05-29T12:32:57;8.60;;;3.00;;
69730;SDS011;56996;48.138;11.538;2023-05-29T12:35:27;7.60;;;2.90;;
69730;SDS011;56996;48.138;11.538;2023-05-29T12:38:05;7.60;;;2.90;;
69730;SDS011;56996;48.138;11.538;2023-05-29T12:40:35;7.00;;;2.90;;
69730;SDS011;56996;48.138;11.538;2023-05-29T12:43:07;10.40;;;3.40;;
69730;SDS011;56996;48.138;11.538;2023-05-29T12:45:35;7.70;;;3.40;;
69730;SDS011;56996;48.138;11.538;2023-05-29T12:48:04;7.40;;;2.90;;
69730;SDS011;56996;48.138;11.538;2023-05-29T12:50:37;7.60;;;2.90;;
69730;SDS011;56996;48.138;11.538;2023-05-29T12:53:06;8.60;;;3.50;;
69730;SDS011;56996;48.138;11.538;2023-05-29T12:55:36;7.90;;;2.80;;
69730;SDS011;56996;48.138;11.538;2023-05-29T12:58:06;8.00;;;3.30;;
69730;SDS011;56996;48.138;11.538;2023-05-29T13:00:34;7.60;;;3.30;;
69730;SDS011;56996;48.138;11.538;2023-05-29T13:03:02;7.30;;;2.90;;
69730;SDS011;56996;48.138;11.538;2023-05-29T13:05:29;8.60;;;3.00;;
69730;SDS011;56996;48.138;11.538;2023-05-29T13:07:56;7.30;;;2.80;;
69730;SDS011;56996;48.138;11.538;2023-05-29T13:10:24;6.70;;;2.90;;
69730;SDS011;56996;48.138;11.538;2023-05-29T13:12:54;7.80;;;2.90;;
69730;SDS011;56996;48.138;11.538;2023-05-29T13:15:22;7.80;;;2.80;;
69730;SDS011;56996;48.138;11.538;2023-05-29T13:17:50;8.40;;;3.00;;
69730;SDS011;56996;48.138;11.538;2023-05-29T13:20:17;7.70;;;3.00;;
69730;SDS011;56996;48.138;11.538;2023-05-29T13:22:47;7.10;;;2.90;;
69730;SDS011;56996;48.138;11.538;2023-05-29T13:25:15;8.30;;;3.60;;
69730;SDS011;56996;48.138;11.538;2023-05-29T13:27:45;6.80;;;2.90;;
69730;SDS011;56996;48.138;11.538;2023-05-29T13:30:14;8.50;;;3.20;;
69730;SDS011;56996;48.138;11.538;2023-05-29T13:32:42;7.20;;;2.60;;
69730;SDS011;56996;48.138;11.538;2023-05-29T13:35:09;6.50;;;2.70;;
69730;SDS011;56996;48.138;11.538;2023-05-29T13:37:36;7.90;;;3.00;;
69730;SDS011;56996;48.138;11.538;2023-05-29T13:40:04;7.30;;;3.10;;
69730;SDS011;56996;48.138;11.538;2023-05-29T13:42:32;6.70;;;2.70;;
69730;SDS011;56996;48.138;11.538;2023-05-29T13:44:59;7.50;;;3.10;;
69730;SDS011;56996;48.138;11.538;2023-05-29T13:47:26;8.00;;;3.50;;
69730;SDS011;56996;48.138;11.538;2023-05-29T13:49:55;6.80;;;2.80;;
69730;SDS011;56996;48.138;11.538;2023-05-29T13:52:22;7.10;;;3.10;;
69730;SDS011;56996;48.138;11.538;2023-05-29T13:57:42;6.60;;;2.40;;
69730;SDS011;56996;48.138;11.538;2023-05-29T14:06:04;7.30;;;2.90;;
69730;SDS011;56996;48.138;11.538;2023-05-29T14:08:32;7.10;;;3.00;;
69730;SDS011;56996;48.138;11.538;2023-05-29T14:10:58;7.90;;;3.40;;
69730;SDS011;56996;48.138;11.538;2023-05-29T14:13:25;7.00;;;3.00;;
69730;SDS011;56996;48.138;11.538;2023-05-29T14:15:52;8.60;;;3.20;;
69730;SDS011;56996;48.138;11.538;2023-05-29T14:18:22;9.20;;;3.30;;
69730;SDS011;56996;48.138;11.538;2023-05-29T14:20:49;7.40;;;3.30;;
69730;SDS011;56996;48.138;11.538;2023-05-29T14:23:17;7.40;;;2.90;;
69730;SDS011;56996;48.138;11.538;2023-05-29T14:25:44;9.50;;;3.00;;
69730;SDS011;56996;48.138;11.538;2023-05-29T14:28:11;7.70;;;3.10;;
69730;SDS011;56996;48.138;11.538;2023-05-29T14:30:37;8.10;;;3.40;;
69730;SDS011;56996;48.138;11.538;2023-05-29T14:33:05;7.50;;;3.00;;
69730;SDS011;56996;48.138;11.538;2023-05-29T14:35:32;9.00;;;3.30;;
69730;SDS011;56996;48.138;11.538;2023-05-29T14:37:58;6.80;;;3.00;;
69730;SDS011;56996;48.138;11.538;2023-05-29T14:40:25;5.90;;;2.40;;
69730;SDS011;56996;48.138;11.538;2023-05-29T14:42:52;7.00;;;2.60;;
69730;SDS011;56996;48.138;11.538;2023-05-29T14:45:19;7.00;;;3.10;;
69730;SDS011;56996;48.138;11.538;2023-05-29T14:47:45;6.60;;;3.00;;
69730;SDS011;56996;48.138;11.538;2023-05-29T14:50:12;9.60;;;3.20;;
69730;SDS011;56996;48.138;11.538;2023-05-29T14:52:39;7.90;;;3.00;;
69730;SDS011;56996;48.138;11.538;2023-05-29T14:55:06;7.90;;;3.40;;
69730;SDS011;56996;48.138;11.538;2023-05-29T14:57:33;7.00;;;3.30;;
69730;SDS011;56996;48.138;11.538;2023-05-29T15:00:01;8.30;;;3.50;;
69730;SDS011;56996;48.138;11.538;2023-05-29T15:02:28;8.00;;;3.40;;
69730;SDS011;56996;48.138;11.538;2023-05-29T15:04:55;8.50;;;3.60;;
69730;SDS011;56996;48.138;11.538;2023-05-29T15:07:22;6.30;;;3.00;;
69730;SDS011;56996;48.138;11.538;2023-05-29T15:09:49;6.90;;;2.90;;